Painesdale, Michigan
Current Conditions -  °F | °C
As of 4:53 AM on Thursday 23 Oct 2014 (Local Time) from KCMX Reporting Station
Overcast Overcast  
Wind Chill: 37°   Ceiling: 4900
Heat Index: 43°   Visibility: 10mi
Dew Point: 35°   Wind: 10mph
Humidity: 74%   Direction: 160°SSE
Pressure: 30.08"   Gusts: NA
Location:  47.04°N, 88.67°W
Report Text: KCMX 230853Z AUTO 16009KT 10SM SCT024 BKN049 OVC060 06/02 A3008 RMK AO2 SLP194 T00610017 58008
Loading
Personal Weather Stations






























Interactive Weather Map
Tropical Storm Tracking
New forecast layout! Learn more

10-Day Weather Forecast

Advertisements
Track Severe Weather on mobile